createdAt,value
2022-11-18T00:01:17.661Z,93435.19
2022-11-18T00:03:45.406Z,93422.22
2022-11-18T00:06:15.069Z,93433.72
2022-11-18T00:08:42.462Z,93426.50
2022-11-18T00:11:11.404Z,93425.38
2022-11-18T00:13:56.766Z,93425.22
2022-11-18T00:16:24.124Z,93416.28
2022-11-18T00:18:51.340Z,93410.50
2022-11-18T00:21:18.180Z,93410.19
2022-11-18T00:23:44.837Z,93409.22
2022-11-18T00:26:13.786Z,93401.22
2022-11-18T00:28:41.564Z,93391.81
2022-11-18T00:31:11.345Z,93391.53
2022-11-18T00:33:39.188Z,93393.31
2022-11-18T00:36:12.095Z,93382.88
2022-11-18T00:38:39.842Z,93376.00
2022-11-18T00:41:08.999Z,93378.22
2022-11-18T00:43:36.406Z,93379.56
2022-11-18T00:46:04.536Z,93369.44
2022-11-18T00:48:31.171Z,93372.16
2022-11-18T00:51:05.891Z,93373.28
2022-11-18T00:53:32.472Z,93374.72
2022-11-18T00:55:59.132Z,93367.22
2022-11-18T00:58:25.814Z,93359.69
2022-11-18T01:00:52.928Z,93362.72
2022-11-18T01:03:20.319Z,93361.09
2022-11-18T01:05:47.724Z,93356.28
2022-11-18T01:08:14.680Z,93356.44
2022-11-18T01:10:41.638Z,93350.38
2022-11-18T01:13:23.004Z,93355.34
2022-11-18T01:15:55.221Z,93348.97
2022-11-18T01:18:25.473Z,93355.47
2022-11-18T01:20:52.880Z,93352.25
2022-11-18T01:23:20.701Z,93352.09
2022-11-18T01:25:49.191Z,93349.06
2022-11-18T01:28:21.986Z,93351.16
2022-11-18T01:30:50.504Z,93349.72
2022-11-18T01:33:17.060Z,93362.19
2022-11-18T01:35:44.507Z,93372.78
2022-11-18T01:38:12.512Z,93380.94
2022-11-18T01:40:39.767Z,93384.97
2022-11-18T01:43:12.913Z,93389.88
2022-11-18T01:45:42.017Z,93392.81
2022-11-18T01:48:23.866Z,93386.06
2022-11-18T01:51:00.760Z,93381.28
2022-11-18T01:53:32.797Z,93379.84
2022-11-18T01:56:05.203Z,93383.34
2022-11-18T01:58:40.534Z,93382.56
2022-11-18T02:01:08.191Z,93385.75
2022-11-18T02:03:35.564Z,93389.75
2022-11-18T02:06:03.501Z,93385.44
2022-11-18T02:08:30.896Z,93391.09
2022-11-18T02:10:57.704Z,93388.66
2022-11-18T02:13:24.954Z,93390.09
2022-11-18T02:16:10.574Z,93384.34
2022-11-18T02:18:59.399Z,93383.69
2022-11-18T02:22:03.592Z,93381.94
2022-11-18T02:24:48.428Z,93382.22
2022-11-18T02:27:26.038Z,93382.41
2022-11-18T02:30:09.576Z,93370.53
2022-11-18T02:32:36.099Z,93378.28
2022-11-18T02:35:46.485Z,93369.13
2022-11-18T02:38:30.809Z,93379.25
2022-11-18T02:41:03.290Z,93379.56
2022-11-18T02:43:39.136Z,93376.53
2022-11-18T02:46:10.032Z,93372.81
2022-11-18T02:48:44.442Z,93374.63
2022-11-18T02:51:13.418Z,93373.97
2022-11-18T02:53:42.191Z,93377.78
2022-11-18T02:56:10.289Z,93380.50
2022-11-18T02:58:36.831Z,93374.09
2022-11-18T03:01:03.696Z,93377.28
2022-11-18T03:03:33.318Z,93381.31
2022-11-18T03:06:16.348Z,93376.84
2022-11-18T03:08:50.145Z,93381.03
2022-11-18T03:11:26.253Z,93382.91
2022-11-18T03:13:58.716Z,93388.38
2022-11-18T03:16:38.008Z,93389.16
2022-11-18T03:19:09.095Z,93397.19
2022-11-18T03:21:51.560Z,93395.78
2022-11-18T03:24:27.668Z,93399.44
2022-11-18T03:27:00.131Z,93408.06
2022-11-18T03:29:34.532Z,93408.13
2022-11-18T03:32:17.463Z,93412.25
2022-11-18T03:34:49.410Z,93422.69
2022-11-18T03:37:19.800Z,93420.84
2022-11-18T03:39:52.321Z,93427.25
2022-11-18T03:42:25.078Z,93419.28
2022-11-18T03:44:56.594Z,93423.97
2022-11-18T03:47:29.989Z,93424.59
2022-11-18T03:50:04.554Z,93429.72
2022-11-18T03:52:35.587Z,93435.03
2022-11-18T03:55:10.986Z,93431.66
2022-11-18T03:57:41.502Z,93425.41
2022-11-18T04:00:14.369Z,93429.09
2022-11-18T04:02:41.418Z,93418.41
2022-11-18T04:05:12.683Z,93421.94
2022-11-18T04:07:53.906Z,93418.56
2022-11-18T04:10:33.415Z,93426.72
2022-11-18T04:13:06.979Z,93420.03
2022-11-18T04:15:38.012Z,93428.97
2022-11-18T04:18:04.888Z,93428.31
2022-11-18T04:20:32.412Z,93434.53
2022-11-18T04:22:59.060Z,93429.22
2022-11-18T04:25:25.884Z,93429.22
2022-11-18T04:27:52.724Z,93426.53
2022-11-18T04:30:19.913Z,93425.91
2022-11-18T04:32:47.121Z,93432.00
2022-11-18T04:35:14.746Z,93420.63
2022-11-18T04:37:41.466Z,93428.66
2022-11-18T04:40:09.165Z,93422.38
2022-11-18T04:42:35.975Z,93422.38
2022-11-18T04:45:03.055Z,93426.66
2022-11-18T04:47:29.675Z,93429.72
2022-11-18T04:49:56.471Z,93434.97
2022-11-18T04:52:23.138Z,93432.09
2022-11-18T04:54:49.821Z,93427.91
2022-11-18T04:57:16.407Z,93432.38
2022-11-18T04:59:43.048Z,93427.75
2022-11-18T05:02:09.650Z,93439.44
2022-11-18T05:04:36.317Z,93433.19
2022-11-18T05:07:04.701Z,93438.16
2022-11-18T05:09:32.409Z,93439.09
2022-11-18T05:12:18.514Z,93432.88
2022-11-18T05:14:49.620Z,93437.72
2022-11-18T05:17:18.124Z,93431.50
2022-11-18T05:19:44.699Z,93435.44
2022-11-18T05:22:11.294Z,93435.31
2022-11-18T05:24:38.042Z,93439.06
2022-11-18T05:27:04.591Z,93439.38
2022-11-18T05:29:31.234Z,93438.53
2022-11-18T05:31:57.828Z,93445.75
2022-11-18T05:34:24.490Z,93446.59
2022-11-18T05:36:51.118Z,93450.53
2022-11-18T05:39:18.790Z,93448.47
2022-11-18T05:42:05.940Z,93454.91
2022-11-18T05:44:32.529Z,93457.00
2022-11-18T05:47:00.235Z,93451.88
2022-11-18T05:49:26.883Z,93462.28
2022-11-18T05:51:53.481Z,93461.94
2022-11-18T05:54:21.649Z,93466.72
2022-11-18T05:56:48.428Z,93471.84
2022-11-18T05:59:15.367Z,93479.72
2022-11-18T06:01:48.148Z,93462.13
2022-11-18T06:04:44.640Z,93474.75
2022-11-18T06:07:20.501Z,93474.56
2022-11-18T06:09:51.994Z,93480.81
2022-11-18T06:12:23.262Z,93487.16
2022-11-18T06:14:56.597Z,93485.66
2022-11-18T06:17:28.832Z,93491.28
2022-11-18T06:19:56.759Z,93490.31
2022-11-18T06:22:23.431Z,93502.69
2022-11-18T06:24:50.322Z,93496.56
2022-11-18T06:27:17.559Z,93496.41
2022-11-18T06:29:44.194Z,93514.88
2022-11-18T06:32:11.161Z,93506.88
2022-11-18T06:34:41.418Z,93521.28
2022-11-18T06:37:20.701Z,93518.88
2022-11-18T06:39:47.496Z,93524.13
2022-11-18T06:42:36.866Z,93528.97
2022-11-18T06:45:04.583Z,93534.13
2022-11-18T06:47:31.182Z,93532.72
2022-11-18T06:49:57.752Z,93538.25
2022-11-18T06:52:24.475Z,93538.41
2022-11-18T06:54:51.050Z,93534.69
2022-11-18T06:57:17.692Z,93544.34
2022-11-18T06:59:44.295Z,93543.72
2022-11-18T07:02:11.050Z,93547.34
2022-11-18T07:04:39.754Z,93542.63
2022-11-18T07:07:09.181Z,93548.97
2022-11-18T07:09:36.774Z,93550.13
2022-11-18T07:12:04.721Z,93556.53
2022-11-18T07:14:31.481Z,93560.03
2022-11-18T07:16:58.105Z,93563.06
2022-11-18T07:19:24.694Z,93570.13
2022-11-18T07:21:51.556Z,93570.00
2022-11-18T07:24:18.219Z,93569.13
2022-11-18T07:26:44.863Z,93574.13
2022-11-18T07:29:11.503Z,93574.78
2022-11-18T07:31:39.657Z,93584.88
2022-11-18T07:34:07.118Z,93581.19
2022-11-18T07:36:35.905Z,93589.38
2022-11-18T07:39:05.225Z,93586.66
2022-11-18T07:41:32.395Z,93587.44
2022-11-18T07:44:01.343Z,93586.31
2022-11-18T07:46:30.239Z,93598.69
2022-11-18T07:48:59.008Z,93592.72
2022-11-18T07:51:27.883Z,93597.56
2022-11-18T07:53:54.929Z,93601.88
2022-11-18T07:56:22.613Z,93602.84
2022-11-18T07:58:53.971Z,93608.28
2022-11-18T08:01:22.879Z,93621.59
2022-11-18T08:03:49.527Z,93612.63
2022-11-18T08:06:17.947Z,93621.75
2022-11-18T08:08:45.070Z,93619.19
2022-11-18T08:11:20.407Z,93620.94
2022-11-18T08:13:48.710Z,93620.34
2022-11-18T08:16:21.776Z,93618.06
2022-11-18T08:18:48.415Z,93626.09
2022-11-18T08:21:15.844Z,93619.34
2022-11-18T08:23:42.969Z,93622.22
2022-11-18T08:26:15.621Z,93622.16
2022-11-18T08:28:44.034Z,93625.38
2022-11-18T08:31:12.875Z,93620.41
2022-11-18T08:33:39.892Z,93629.06
2022-11-18T08:36:14.331Z,93623.47
2022-11-18T08:38:41.012Z,93627.59
2022-11-18T08:41:07.733Z,93632.25
2022-11-18T08:43:37.600Z,93633.34
2022-11-18T08:46:04.208Z,93629.34
2022-11-18T08:48:30.926Z,93640.69
2022-11-18T08:50:58.867Z,93637.38
2022-11-18T08:53:25.545Z,93642.19
2022-11-18T08:55:57.475Z,93633.50
2022-11-18T08:58:24.673Z,93641.13
2022-11-18T09:00:51.524Z,93634.81
2022-11-18T09:03:18.314Z,93641.56
2022-11-18T09:05:45.165Z,93635.63
2022-11-18T09:08:11.762Z,93640.09
2022-11-18T09:10:38.634Z,93638.06
2022-11-18T09:13:33.463Z,93646.78
2022-11-18T09:15:51.778Z,93643.94
2022-11-18T09:18:18.315Z,93650.91
2022-11-18T09:20:57.456Z,93650.53
2022-11-18T09:23:24.599Z,93646.13
2022-11-18T09:26:01.956Z,93650.81
2022-11-18T09:28:29.339Z,93658.03
2022-11-18T09:30:55.917Z,93655.94
2022-11-18T09:33:23.249Z,93656.81
2022-11-18T09:35:50.300Z,93665.75
2022-11-18T09:38:17.047Z,93654.31
2022-11-18T09:41:00.789Z,93661.28
2022-11-18T09:43:52.197Z,93658.69
2022-11-18T09:46:33.997Z,93661.47
2022-11-18T09:49:14.450Z,93669.47
2022-11-18T09:51:43.893Z,93678.50
2022-11-18T09:54:16.584Z,93674.47
2022-11-18T09:56:43.669Z,93679.56
2022-11-18T09:59:14.464Z,93672.31
2022-11-18T10:01:42.733Z,93670.63
2022-11-18T10:04:18.600Z,93678.97
2022-11-18T10:06:46.394Z,93675.13
2022-11-18T10:09:18.866Z,93679.75
2022-11-18T10:12:12.941Z,93681.34
2022-11-18T10:14:42.513Z,93683.88
2022-11-18T10:17:45.307Z,93676.47
2022-11-18T10:20:51.726Z,93680.91
2022-11-18T10:23:28.890Z,93685.22
2022-11-18T10:25:55.818Z,93686.19
2022-11-18T10:28:25.229Z,93690.59
2022-11-18T10:30:52.639Z,93691.34
2022-11-18T10:33:22.193Z,93693.16
2022-11-18T10:35:49.507Z,93688.34
2022-11-18T10:38:20.532Z,93694.25
2022-11-18T10:41:00.908Z,93683.59
2022-11-18T10:43:50.079Z,93703.66
2022-11-18T10:46:34.788Z,93690.81
2022-11-18T10:49:10.113Z,93696.75
2022-11-18T10:51:48.808Z,93696.88
2022-11-18T10:54:20.210Z,93701.19
2022-11-18T10:56:58.686Z,93699.22
2022-11-18T10:59:44.389Z,93702.63
2022-11-18T11:02:34.277Z,93703.66
2022-11-18T11:05:17.646Z,93697.06
2022-11-18T11:07:44.367Z,93699.13
2022-11-18T11:10:10.886Z,93694.19
2022-11-18T11:12:47.046Z,93699.50
2022-11-18T11:15:18.444Z,93694.91
2022-11-18T11:18:18.319Z,93695.84
2022-11-18T11:20:45.458Z,93696.41
2022-11-18T11:23:17.723Z,93700.44
2022-11-18T11:29:16.999Z,93704.84
2022-11-18T11:32:05.672Z,93699.84
2022-11-18T11:34:41.376Z,93694.06
2022-11-18T11:37:47.517Z,93711.06
2022-11-18T11:40:29.391Z,93705.63
2022-11-18T11:42:58.608Z,93713.38
2022-11-18T11:45:39.845Z,93715.31
2022-11-18T11:48:27.775Z,93720.13
2022-11-18T11:51:03.054Z,93724.44
2022-11-18T11:53:53.613Z,93724.47
2022-11-18T11:56:41.828Z,93729.94
2022-11-18T11:59:43.104Z,93735.22
2022-11-18T12:02:36.213Z,93741.16
2022-11-18T12:05:36.062Z,93747.41
2022-11-18T12:08:09.771Z,93749.34
2022-11-18T12:10:57.865Z,93746.78
2022-11-18T12:13:33.977Z,93755.44
2022-11-18T12:16:18.589Z,93749.97
2022-11-18T12:18:58.211Z,93751.28
2022-11-18T12:21:46.578Z,93754.78
2022-11-18T12:24:42.452Z,93753.50
2022-11-18T12:27:15.105Z,93764.41
2022-11-18T12:29:50.814Z,93755.91
2022-11-18T12:32:36.364Z,93757.66
2022-11-18T12:35:11.812Z,93759.91
2022-11-18T12:37:53.535Z,93760.56
2022-11-18T12:40:38.953Z,93766.16
2022-11-18T12:43:52.853Z,93768.06
2022-11-18T12:46:34.779Z,93766.44
2022-11-18T12:49:45.654Z,93768.56
2022-11-18T12:52:30.284Z,93777.22
2022-11-18T12:54:59.952Z,93778.81
2022-11-18T12:57:31.055Z,93778.03
2022-11-18T12:59:57.740Z,93790.81
2022-11-18T13:02:28.663Z,93787.94
2022-11-18T13:05:04.604Z,93775.94
2022-11-18T13:07:54.078Z,93779.09
2022-11-18T13:10:27.452Z,93791.59
2022-11-18T13:12:54.452Z,93794.44
2022-11-18T13:15:39.725Z,93797.63
2022-11-18T13:18:18.649Z,93797.66
2022-11-18T13:20:57.626Z,93798.00
2022-11-18T13:23:47.952Z,93800.22
2022-11-18T13:26:42.575Z,93807.78
2022-11-18T13:29:30.606Z,93799.78
2022-11-18T13:32:02.927Z,93798.34
2022-11-18T13:34:31.829Z,93793.88
2022-11-18T13:37:00.720Z,93795.94
2022-11-18T13:39:28.509Z,93800.94
2022-11-18T13:42:00.858Z,93805.84
2022-11-18T13:44:35.169Z,93806.34
2022-11-18T13:47:34.355Z,93807.13
2022-11-18T13:50:15.981Z,93812.28
2022-11-18T13:52:51.567Z,93807.44
2022-11-18T13:55:28.201Z,93802.81
2022-11-18T13:58:05.943Z,93803.41
2022-11-18T14:00:35.729Z,93807.66
2022-11-18T14:03:23.950Z,93813.88
2022-11-18T14:05:54.860Z,93814.00
2022-11-18T14:08:33.037Z,93818.13
2022-11-18T14:11:00.630Z,93817.81
2022-11-18T14:13:31.751Z,93819.28
2022-11-18T14:16:01.008Z,93826.97
2022-11-18T14:18:35.922Z,93822.69
2022-11-18T14:21:05.782Z,93823.66
2022-11-18T14:23:40.270Z,93831.13
2022-11-18T14:26:13.510Z,93825.38
2022-11-18T14:28:40.319Z,93826.00
2022-11-18T14:31:12.733Z,93827.09
2022-11-18T14:33:39.620Z,93836.72
2022-11-18T14:36:15.616Z,93838.63
2022-11-18T14:41:47.930Z,93840.81
2022-11-18T14:44:15.239Z,93846.34
2022-11-18T14:46:44.670Z,93849.19
2022-11-18T14:49:18.418Z,93845.16
2022-11-18T14:51:45.937Z,93852.97
2022-11-18T14:54:24.072Z,93847.78
2022-11-18T14:56:55.493Z,93856.56
2022-11-18T14:59:22.605Z,93851.94
2022-11-18T15:01:49.305Z,93855.69
2022-11-18T15:04:17.812Z,93853.88
2022-11-18T15:06:44.716Z,93860.66
2022-11-18T15:09:11.947Z,93863.88
2022-11-18T15:11:38.760Z,93866.38
2022-11-18T15:14:05.603Z,93880.28
2022-11-18T15:16:33.182Z,93887.09
2022-11-18T15:19:02.514Z,93887.25
2022-11-18T15:21:29.643Z,93885.13
2022-11-18T15:23:56.291Z,93891.50
2022-11-18T15:26:29.259Z,93896.56
2022-11-18T15:28:57.418Z,93896.03
2022-11-18T15:31:24.851Z,93899.84
2022-11-18T15:33:52.361Z,93906.38
2022-11-18T15:36:26.575Z,93904.16
2022-11-18T15:38:54.560Z,93905.91
2022-11-18T15:41:23.998Z,93903.50
2022-11-18T15:43:51.296Z,93910.63
2022-11-18T15:46:19.565Z,93913.84
2022-11-18T15:48:46.395Z,93915.38
2022-11-18T15:51:13.192Z,93914.88
2022-11-18T15:53:42.603Z,93920.91
2022-11-18T15:56:37.330Z,93921.56
2022-11-18T15:59:06.354Z,93915.44
2022-11-18T16:01:38.195Z,93924.22
2022-11-18T16:04:09.201Z,93928.16
2022-11-18T16:06:36.367Z,93927.28
2022-11-18T16:09:04.140Z,93927.66
2022-11-18T16:11:49.824Z,93925.97
2022-11-18T16:14:19.238Z,93923.47
2022-11-18T16:16:48.945Z,93923.47
2022-11-18T16:19:18.663Z,93928.75
2022-11-18T16:21:48.878Z,93924.78
2022-11-18T16:24:22.095Z,93932.69
2022-11-18T16:26:49.635Z,93930.88
2022-11-18T16:29:17.517Z,93931.00
2022-11-18T16:31:52.467Z,93947.84
2022-11-18T16:34:21.161Z,93940.63
2022-11-18T16:37:00.664Z,93940.97
2022-11-18T16:39:28.280Z,93951.53
2022-11-18T16:42:02.070Z,93949.16
2022-11-18T16:44:33.193Z,93957.72
2022-11-18T16:46:59.763Z,93957.22
2022-11-18T16:49:27.427Z,93971.69
2022-11-18T16:51:55.622Z,93971.03
2022-11-18T16:54:30.518Z,93964.38
2022-11-18T16:56:58.756Z,93975.75
2022-11-18T16:59:29.870Z,93977.41
2022-11-18T17:01:58.044Z,93977.88
2022-11-18T17:04:26.830Z,93984.44
2022-11-18T17:06:54.426Z,93993.78
2022-11-18T17:09:23.606Z,93990.91
2022-11-18T17:11:51.632Z,93997.31
2022-11-18T17:14:19.686Z,93987.84
2022-11-18T17:16:46.294Z,93997.88
2022-11-18T17:19:16.403Z,93999.00
2022-11-18T17:21:43.954Z,94005.06
2022-11-18T17:24:13.173Z,94002.63
2022-11-18T17:26:40.206Z,94003.34
2022-11-18T17:29:07.144Z,93996.94
2022-11-18T17:31:33.949Z,94003.09
2022-11-18T17:34:00.569Z,93997.66
2022-11-18T17:36:27.821Z,94003.16
2022-11-18T17:38:56.544Z,94005.78
2022-11-18T17:41:43.428Z,94003.84
2022-11-18T17:44:12.026Z,94010.56
2022-11-18T17:46:39.001Z,94012.41
2022-11-18T17:49:12.290Z,94008.63
2022-11-18T17:51:39.008Z,94016.19
2022-11-18T17:54:05.865Z,94010.53
2022-11-18T17:56:32.550Z,94008.78
2022-11-18T17:58:59.179Z,94013.88
2022-11-18T18:01:25.884Z,94019.16
2022-11-18T18:03:52.539Z,94025.94
2022-11-18T18:06:22.808Z,94025.00
2022-11-18T18:08:49.378Z,94033.22
2022-11-18T18:11:19.087Z,94030.28
2022-11-18T18:14:04.763Z,94028.94
2022-11-18T18:16:32.704Z,94038.47
2022-11-18T18:19:00.886Z,94030.66
2022-11-18T18:21:27.807Z,94037.44
2022-11-18T18:23:54.591Z,94038.50
2022-11-18T18:26:24.089Z,94039.31
2022-11-18T18:28:53.361Z,94047.34
2022-11-18T18:31:20.084Z,94040.44
2022-11-18T18:33:46.842Z,94039.50
2022-11-18T18:36:16.063Z,94049.16
2022-11-18T18:38:43.834Z,94041.94
2022-11-18T18:44:47.247Z,94050.47
2022-11-18T18:47:13.863Z,94055.69
2022-11-18T18:49:40.531Z,94053.72
2022-11-18T18:52:07.104Z,94057.66
2022-11-18T18:54:33.686Z,94055.00
2022-11-18T18:57:00.407Z,94049.94
2022-11-18T18:59:27.063Z,94063.81
2022-11-18T19:01:53.823Z,94069.19
2022-11-18T19:04:20.751Z,94071.63
2022-11-18T19:06:55.037Z,94069.56
2022-11-18T19:09:25.840Z,94077.47
2022-11-18T19:12:11.280Z,94075.63
2022-11-18T19:14:40.960Z,94079.00
2022-11-18T19:17:11.181Z,94080.00
2022-11-18T19:19:59.502Z,94077.72
2022-11-18T19:22:29.242Z,94087.97
2022-11-18T19:24:56.206Z,94093.84
2022-11-18T19:27:23.500Z,94087.53
2022-11-18T19:29:50.114Z,94089.97
2022-11-18T19:32:16.754Z,94092.28
2022-11-18T19:34:43.342Z,94091.47
2022-11-18T19:37:09.926Z,94089.97
2022-11-18T19:39:38.289Z,94099.41
2022-11-18T19:42:05.146Z,94093.75
2022-11-18T19:44:31.761Z,94097.63
2022-11-18T19:46:58.376Z,94107.16
2022-11-18T19:49:24.921Z,94105.25
2022-11-18T19:51:51.519Z,94110.66
2022-11-18T19:54:18.135Z,94114.41
2022-11-18T19:56:44.701Z,94109.19
2022-11-18T19:59:14.333Z,94105.69
2022-11-18T20:01:41.377Z,94100.28
2022-11-18T20:04:08.208Z,94105.16
2022-11-18T20:06:36.449Z,94102.28
2022-11-18T20:09:06.593Z,94097.19
2022-11-18T20:11:33.320Z,94096.53
2022-11-18T20:14:00.210Z,94093.72
2022-11-18T20:16:26.837Z,94105.03
2022-11-18T20:18:55.740Z,94107.72
2022-11-18T20:21:23.670Z,94105.84
2022-11-18T20:23:54.644Z,94115.66
2022-11-18T20:26:23.415Z,94119.81
2022-11-18T20:28:55.894Z,94116.56
2022-11-18T20:31:25.922Z,94113.84
2022-11-18T20:33:54.823Z,94111.31
2022-11-18T20:36:27.270Z,94109.53
2022-11-18T20:38:56.166Z,94110.25
2022-11-18T20:41:23.523Z,94117.06
2022-11-18T20:43:50.940Z,94123.78
2022-11-18T20:46:21.036Z,94125.03
2022-11-18T20:48:48.857Z,94119.94
2022-11-18T20:51:19.502Z,94119.56
2022-11-18T20:53:46.197Z,94112.84
2022-11-18T20:56:15.203Z,94118.72
2022-11-18T20:58:41.989Z,94119.56
2022-11-18T21:01:29.349Z,94127.63
2022-11-18T21:03:58.526Z,94121.94
2022-11-18T21:06:27.566Z,94123.69
2022-11-18T21:08:58.497Z,94121.38
2022-11-18T21:11:26.357Z,94130.41
2022-11-18T21:14:12.130Z,94132.31
2022-11-18T21:16:39.997Z,94138.91
2022-11-18T21:19:06.680Z,94137.16
2022-11-18T21:21:45.088Z,94134.72
2022-11-18T21:24:15.783Z,94136.63
2022-11-18T21:26:43.338Z,94137.97
2022-11-18T21:29:11.468Z,94137.13
2022-11-18T21:31:38.745Z,94139.16
2022-11-18T21:34:06.393Z,94141.81
2022-11-18T21:36:33.987Z,94145.63
2022-11-18T21:39:01.524Z,94143.22
2022-11-18T21:41:29.532Z,94142.53
2022-11-18T21:44:05.957Z,94151.25
2022-11-18T21:46:34.306Z,94156.00
2022-11-18T21:49:01.151Z,94154.38
2022-11-18T21:51:28.165Z,94149.78
2022-11-18T21:53:54.865Z,94150.59
2022-11-18T21:56:23.612Z,94151.94
2022-11-18T21:58:51.170Z,94152.22
2022-11-18T22:01:20.601Z,94151.94
2022-11-18T22:04:05.665Z,94159.50
2022-11-18T22:06:34.159Z,94150.59
2022-11-18T22:09:02.409Z,94160.28
2022-11-18T22:11:29.003Z,94169.66
2022-11-18T22:13:55.869Z,94162.13
2022-11-18T22:16:23.912Z,94153.75
2022-11-18T22:18:57.199Z,94152.75
2022-11-18T22:21:26.456Z,94154.44
2022-11-18T22:23:57.891Z,94154.41
2022-11-18T22:26:24.567Z,94153.63
2022-11-18T22:28:56.664Z,94150.56
2022-11-18T22:31:25.187Z,94153.13
2022-11-18T22:33:52.506Z,94159.94
2022-11-18T22:36:21.364Z,94151.75
2022-11-18T22:38:48.663Z,94158.25
2022-11-18T22:41:39.375Z,94165.38
2022-11-18T22:44:08.418Z,94165.91
2022-11-18T22:46:37.142Z,94171.03
2022-11-18T22:49:04.951Z,94176.56
2022-11-18T22:51:32.373Z,94176.44
2022-11-18T22:56:45.528Z,94170.94
2022-11-18T22:59:12.745Z,94166.06
2022-11-18T23:01:39.681Z,94165.38
2022-11-18T23:04:06.428Z,94167.69
2022-11-18T23:06:32.996Z,94160.94
2022-11-18T23:08:59.566Z,94168.63
2022-11-18T23:11:44.713Z,94169.81
2022-11-18T23:14:11.364Z,94177.09
2022-11-18T23:16:40.262Z,94173.06
2022-11-18T23:19:09.873Z,94169.97
2022-11-18T23:21:36.859Z,94173.19
2022-11-18T23:24:03.959Z,94167.69
2022-11-18T23:26:31.652Z,94166.88
2022-11-18T23:28:58.275Z,94168.34
2022-11-18T23:31:26.844Z,94164.31
2022-11-18T23:33:57.446Z,94166.88
2022-11-18T23:36:24.977Z,94164.84
2022-11-18T23:38:53.045Z,94159.47
2022-11-18T23:41:19.993Z,94154.50
2022-11-18T23:43:48.295Z,94151.84
2022-11-18T23:46:16.834Z,94160.09
2022-11-18T23:48:44.287Z,94164.94
2022-11-18T23:51:20.402Z,94169.66
2022-11-18T23:53:51.018Z,94173.94
2022-11-18T23:56:19.032Z,94168.69
2022-11-18T23:58:48.212Z,94169.25
